Time;durP1;ratioP1;P1;durP2;ratioP2;P2;SDS_P1;SDS_P2;PMS_P1;PMS_P2;Temp;Humidity;BMP_temperature;BMP_pressure;BME280_temperature;BME280_humidity;BME280_pressure;Samples;Min_cycle;Max_cycle;Signal;HPM_P1;HPM_P2
2022/09/16 00:01:13;;;;;;;9.65;2.38;;;24.80;64.70;;;;;;5128140;27;20212;-75
2022/09/16 00:03:42;;;;;;;8.38;2.22;;;24.80;64.80;;;;;;5127250;27;20192;-75
2022/09/16 00:06:20;;;;;;;5.07;2.75;;;24.80;64.80;;;;;;5129071;27;20241;-75
2022/09/16 00:08:49;;;;;;;5.75;2.58;;;24.70;64.80;;;;;;5122535;27;20243;-75
2022/09/16 00:11:18;;;;;;;6.97;2.60;;;24.70;64.80;;;;;;5121127;27;20219;-75
2022/09/16 00:13:46;;;;;;;7.63;2.75;;;24.70;65.00;;;;;;5121244;27;20193;-75
2022/09/16 00:16:19;;;;;;;6.63;2.83;;;24.60;65.10;;;;;;5129156;27;20188;-74
2022/09/16 00:18:47;;;;;;;6.90;2.60;;;24.60;65.20;;;;;;5125346;27;20192;-76
2022/09/16 00:21:16;;;;;;;7.53;3.17;;;24.60;65.20;;;;;;5124066;27;20246;-74
2022/09/16 00:23:46;;;;;;;6.65;2.67;;;24.60;65.30;;;;;;5130055;27;20196;-76
2022/09/16 00:26:15;;;;;;;10.65;2.85;;;24.60;65.40;;;;;;5130731;27;20196;-74
2022/09/16 00:28:43;;;;;;;10.98;2.83;;;24.50;65.20;;;;;;5123704;27;20253;-75
2022/09/16 00:31:11;;;;;;;6.90;2.85;;;24.50;65.40;;;;;;5127920;27;20245;-76
2022/09/16 00:33:40;;;;;;;6.97;2.97;;;24.50;65.40;;;;;;5125586;27;20295;-75
2022/09/16 00:36:10;;;;;;;12.38;2.92;;;24.50;65.30;;;;;;5128742;27;20249;-75
2022/09/16 00:38:39;;;;;;;9.60;3.08;;;24.50;65.20;;;;;;5125259;27;20240;-75
2022/09/16 00:41:13;;;;;;;8.85;2.85;;;24.50;65.20;;;;;;5129593;27;20268;-75
2022/09/16 00:43:53;;;;;;;8.35;3.05;;;24.50;65.20;;;;;;5128013;27;20230;-75
2022/09/16 00:46:30;;;;;;;9.02;3.17;;;24.50;65.20;;;;;;5130034;27;20197;-74
2022/09/16 00:49:01;;;;;;;12.55;3.15;;;24.50;65.20;;;;;;5125111;27;20187;-75
2022/09/16 00:51:30;;;;;;;10.18;3.28;;;24.50;65.20;;;;;;5126243;27;20229;-74
2022/09/16 00:54:03;;;;;;;6.45;3.25;;;24.40;65.40;;;;;;5128540;27;20188;-75
2022/09/16 00:56:38;;;;;;;15.00;4.10;;;24.40;65.70;;;;;;5128385;27;20192;-76
2022/09/16 00:59:10;;;;;;;9.60;3.00;;;24.40;65.80;;;;;;5127065;27;20196;-75
2022/09/16 01:01:41;;;;;;;8.43;3.03;;;24.30;65.80;;;;;;5122832;27;20225;-76
2022/09/16 01:04:15;;;;;;;11.82;3.17;;;24.30;66.00;;;;;;5123417;27;20216;-74
2022/09/16 01:06:44;;;;;;;9.80;3.08;;;24.30;66.00;;;;;;5126044;27;20644;-74
2022/09/16 01:09:13;;;;;;;12.13;3.22;;;24.30;65.80;;;;;;5128219;27;20235;-75
2022/09/16 01:11:42;;;;;;;9.02;2.97;;;24.30;65.80;;;;;;5121456;27;20185;-76
2022/09/16 01:17:06;;;;;;;5.97;2.63;;;24.30;66.00;;;;;;5124904;27;20188;-75
2022/09/16 01:19:48;;;;;;;8.00;2.85;;;24.20;65.90;;;;;;5124165;27;20221;-75
2022/09/16 01:22:30;;;;;;;11.00;3.50;;;24.20;66.10;;;;;;5117046;27;20694;-75
2022/09/16 01:25:10;;;;;;;8.70;3.20;;;24.20;66.20;;;;;;5126299;27;20237;-75
2022/09/16 01:28:07;;;;;;;9.52;2.53;;;24.20;66.10;;;;;;5130350;28;20184;-75
2022/09/16 01:30:59;;;;;;;6.68;2.65;;;24.20;66.00;;;;;;5096520;27;20188;-74
2022/09/16 01:33:39;;;;;;;7.82;2.50;;;24.10;66.80;;;;;;5122209;27;20276;-74
2022/09/16 01:36:25;;;;;;;6.10;2.63;;;24.10;66.10;;;;;;5126575;27;20595;-79
2022/09/16 01:39:08;;;;;;;6.80;2.88;;;24.10;66.20;;;;;;5126203;28;20213;-75
2022/09/16 01:41:50;;;;;;;6.88;2.67;;;24.10;66.50;;;;;;5130273;27;20231;-74
2022/09/16 01:44:25;;;;;;;9.63;2.75;;;24.10;66.70;;;;;;5124994;27;20184;-76
2022/09/16 01:47:02;;;;;;;8.07;2.63;;;24.10;66.70;;;;;;5119858;27;20275;-75
2022/09/16 01:49:41;;;;;;;18.33;2.83;;;24.00;66.70;;;;;;5121797;27;20192;-77
2022/09/16 01:52:20;;;;;;;6.50;2.75;;;24.00;66.80;;;;;;5124811;27;20218;-76
2022/09/16 01:54:53;;;;;;;8.60;2.85;;;24.00;67.10;;;;;;5126327;27;20223;-75
2022/09/16 01:57:27;;;;;;;8.13;2.50;;;24.00;67.10;;;;;;5121127;27;20184;-75
2022/09/16 02:00:02;;;;;;;5.78;2.63;;;24.00;67.20;;;;;;5127164;28;20224;-74
2022/09/16 02:02:37;;;;;;;6.20;3.05;;;24.00;67.40;;;;;;5125308;27;20269;-74
2022/09/16 02:05:10;;;;;;;12.07;3.15;;;24.00;67.40;;;;;;5125461;27;20199;-75
2022/09/16 02:07:44;;;;;;;7.72;2.20;;;23.90;67.50;;;;;;5122648;27;20184;-74
2022/09/16 02:10:20;;;;;;;9.85;2.42;;;23.90;67.70;;;;;;5128102;28;20606;-75
2022/09/16 02:12:52;;;;;;;4.43;2.00;;;23.90;67.80;;;;;;5123336;27;20511;-77
2022/09/16 02:15:23;;;;;;;6.50;2.20;;;23.90;67.80;;;;;;5130048;27;20206;-75
2022/09/16 02:18:01;;;;;;;8.73;2.17;;;23.90;68.00;;;;;;5122678;27;20283;-74
2022/09/16 02:20:31;;;;;;;5.40;2.17;;;23.90;68.00;;;;;;5133028;27;20188;-75
2022/09/16 02:23:06;;;;;;;10.48;2.25;;;23.90;68.00;;;;;;5125210;27;20281;-76
2022/09/16 02:25:38;;;;;;;5.30;2.20;;;23.90;68.10;;;;;;5131915;27;20589;-75
2022/09/16 02:28:11;;;;;;;7.53;2.28;;;23.90;68.30;;;;;;5119880;27;20253;-75
2022/09/16 02:30:45;;;;;;;7.95;2.13;;;23.80;68.20;;;;;;5127350;27;20652;-75
2022/09/16 02:33:17;;;;;;;5.55;1.88;;;23.80;68.30;;;;;;5123961;27;20240;-75
2022/09/16 02:35:49;;;;;;;13.48;2.00;;;23.90;68.20;;;;;;5128821;27;20669;-75
2022/09/16 02:38:24;;;;;;;10.90;2.38;;;23.90;68.30;;;;;;5123003;27;20220;-75
2022/09/16 02:40:55;;;;;;;5.50;1.67;;;23.90;68.30;;;;;;5132496;27;20188;-74
2022/09/16 02:43:25;;;;;;;6.20;2.30;;;23.90;68.30;;;;;;5128805;27;20289;-76
2022/09/16 02:46:05;;;;;;;9.77;1.80;;;23.80;68.40;;;;;;5120946;27;20717;-74
2022/09/16 02:48:43;;;;;;;9.48;1.77;;;23.80;68.50;;;;;;5126271;27;20185;-77
2022/09/16 02:51:18;;;;;;;5.55;1.98;;;23.90;68.30;;;;;;5128624;27;20276;-75
2022/09/16 02:53:51;;;;;;;11.00;1.75;;;23.90;68.30;;;;;;5129952;27;20187;-75
2022/09/16 02:56:24;;;;;;;7.25;1.70;;;23.90;68.30;;;;;;5130289;27;20191;-76
2022/09/16 02:58:53;;;;;;;7.95;2.10;;;23.90;68.30;;;;;;5128698;27;20232;-75
2022/09/16 03:01:23;;;;;;;5.03;1.73;;;23.90;68.30;;;;;;5126072;27;20238;-74
2022/09/16 03:03:55;;;;;;;7.00;1.98;;;24.00;68.20;;;;;;5127662;27;20220;-75
2022/09/16 03:06:25;;;;;;;12.48;2.03;;;24.00;68.30;;;;;;5129002;27;20253;-75
2022/09/16 03:08:56;;;;;;;6.32;1.73;;;24.00;68.30;;;;;;5128638;27;20235;-74
2022/09/16 03:12:13;;;;;;;9.63;1.75;;;24.00;68.20;;;;;;5127570;27;20189;-75
2022/09/16 03:15:13;;;;;;;5.65;1.33;;;24.00;68.10;;;;;;5033335;28;20214;-75
2022/09/16 03:17:56;;;;;;;10.35;1.98;;;24.00;68.10;;;;;;5021575;28;20231;-75
2022/09/16 03:20:33;;;;;;;4.15;2.00;;;24.00;68.00;;;;;;5110298;27;20698;-74
2022/09/16 03:23:10;;;;;;;6.60;1.80;;;24.10;67.90;;;;;;5127257;27;20254;-75
2022/09/16 03:25:46;;;;;;;8.73;1.55;;;24.00;67.80;;;;;;5125415;27;20227;-75
2022/09/16 03:28:19;;;;;;;7.07;1.60;;;24.10;67.90;;;;;;5126120;27;20200;-74
2022/09/16 03:30:56;;;;;;;9.32;1.98;;;24.10;67.80;;;;;;5130237;27;20237;-75
2022/09/16 03:33:32;;;;;;;13.48;1.95;;;24.10;67.80;;;;;;5129859;27;20223;-75
2022/09/16 03:36:05;;;;;;;6.40;1.77;;;24.10;67.70;;;;;;5127303;27;20260;-75
2022/09/16 03:38:36;;;;;;;7.07;1.92;;;24.10;67.80;;;;;;5126390;27;20246;-74
2022/09/16 03:41:07;;;;;;;8.38;1.60;;;24.00;67.80;;;;;;5131948;27;20184;-75
2022/09/16 03:43:36;;;;;;;8.95;2.22;;;24.10;67.70;;;;;;5121579;27;20228;-75
2022/09/16 03:46:06;;;;;;;10.73;2.45;;;24.10;67.80;;;;;;5129776;27;20188;-74
2022/09/16 03:48:34;;;;;;;5.43;1.80;;;24.00;67.80;;;;;;5123468;27;20192;-74
2022/09/16 03:51:04;;;;;;;4.38;1.85;;;24.00;67.80;;;;;;5132556;27;20192;-75
2022/09/16 03:53:32;;;;;;;4.68;1.70;;;24.00;67.80;;;;;;5121574;27;20185;-74
2022/09/16 03:56:01;;;;;;;6.53;1.75;;;24.00;67.90;;;;;;5123796;27;20266;-74
2022/09/16 03:58:29;;;;;;;15.57;1.58;;;24.00;67.80;;;;;;5126607;27;20195;-74
2022/09/16 04:00:57;;;;;;;6.97;2.20;;;24.00;68.00;;;;;;5128557;27;20192;-75
2022/09/16 04:03:26;;;;;;;11.10;1.95;;;23.90;68.00;;;;;;5128638;27;20211;-74
2022/09/16 04:06:00;;;;;;;8.25;1.70;;;23.90;68.10;;;;;;5123949;27;20636;-74
2022/09/16 04:08:30;;;;;;;21.40;2.65;;;23.90;68.20;;;;;;5129155;27;20249;-74
2022/09/16 04:10:59;;;;;;;8.90;1.60;;;23.90;68.20;;;;;;5123771;27;20605;-74
2022/09/16 04:13:30;;;;;;;7.95;1.48;;;23.90;68.30;;;;;;5127149;27;20458;-75
2022/09/16 04:15:58;;;;;;;9.63;2.17;;;23.90;68.50;;;;;;5130342;27;20227;-74
2022/09/16 04:18:27;;;;;;;7.35;1.55;;;23.80;68.40;;;;;;5121294;27;20192;-75
2022/09/16 04:20:57;;;;;;;7.28;1.80;;;23.80;68.60;;;;;;5125569;27;20224;-75
2022/09/16 04:23:25;;;;;;;10.50;1.95;;;23.80;68.70;;;;;;5125840;27;20261;-78
2022/09/16 04:25:56;;;;;;;12.48;1.75;;;23.70;68.80;;;;;;5124842;27;20575;-74
2022/09/16 04:28:24;;;;;;;6.53;1.63;;;23.80;68.90;;;;;;5128554;27;20645;-74
2022/09/16 04:30:53;;;;;;;10.75;2.45;;;23.70;68.90;;;;;;5131404;27;20235;-74
2022/09/16 04:33:21;;;;;;;11.90;2.05;;;23.80;69.10;;;;;;5127017;27;20307;-74
2022/09/16 04:35:49;;;;;;;15.25;2.25;;;23.70;69.00;;;;;;5127074;27;20291;-75
2022/09/16 04:38:18;;;;;;;13.30;2.00;;;23.70;69.30;;;;;;5124966;27;20189;-74
2022/09/16 04:40:46;;;;;;;6.78;1.48;;;23.70;69.30;;;;;;5128573;27;20726;-75
2022/09/16 04:43:16;;;;;;;11.80;2.63;;;23.70;69.30;;;;;;5125464;27;20212;-74
2022/09/16 04:45:44;;;;;;;6.70;1.20;;;23.70;69.40;;;;;;5131108;27;20245;-74
2022/09/16 04:48:12;;;;;;;8.85;1.70;;;23.70;69.30;;;;;;5128158;27;20693;-75
2022/09/16 04:50:41;;;;;;;10.45;1.55;;;23.70;70.20;;;;;;5129731;27;20196;-75
2022/09/16 04:53:09;;;;;;;10.68;1.70;;;23.80;69.30;;;;;;5125803;27;20216;-77
2022/09/16 04:55:38;;;;;;;7.00;2.05;;;23.80;69.30;;;;;;5119859;27;20281;-78
2022/09/16 04:58:06;;;;;;;7.85;1.83;;;23.80;69.10;;;;;;5123000;27;20216;-77
2022/09/16 05:00:36;;;;;;;7.90;1.95;;;23.80;69.10;;;;;;5126610;27;20231;-74
2022/09/16 05:03:04;;;;;;;5.97;1.63;;;23.90;69.10;;;;;;5128211;27;20652;-75
2022/09/16 05:05:32;;;;;;;10.13;1.65;;;23.90;69.00;;;;;;5125267;27;20181;-76
2022/09/16 05:08:01;;;;;;;10.40;1.58;;;23.90;69.10;;;;;;5128074;27;20245;-75
2022/09/16 05:10:29;;;;;;;6.93;1.80;;;23.90;69.20;;;;;;5122388;27;20224;-74
2022/09/16 05:12:57;;;;;;;8.80;1.75;;;24.00;69.00;;;;;;5125345;27;20229;-75
2022/09/16 05:15:25;;;;;;;14.43;2.22;;;24.00;69.00;;;;;;5129036;27;20271;-75
2022/09/16 05:17:55;;;;;;;10.30;2.10;;;24.00;69.00;;;;;;5128921;27;20283;-76
2022/09/16 05:20:23;;;;;;;6.45;1.45;;;24.10;70.00;;;;;;5130780;27;20231;-74
2022/09/16 05:22:52;;;;;;;5.35;1.63;;;24.10;69.10;;;;;;5129101;27;20193;-76
2022/09/16 05:25:20;;;;;;;3.83;1.50;;;24.10;69.10;;;;;;5125399;27;20300;-75
2022/09/16 05:27:48;;;;;;;9.32;1.85;;;24.10;69.10;;;;;;5123641;27;20192;-75
2022/09/16 05:30:16;;;;;;;7.55;1.45;;;24.10;69.30;;;;;;5126991;27;20603;-76
2022/09/16 05:32:54;;;;;;;6.88;1.85;;;24.20;69.50;;;;;;5124402;27;20212;-74
2022/09/16 05:35:23;;;;;;;5.47;1.98;;;24.30;69.40;;;;;;5127541;27;20227;-74
2022/09/16 05:37:51;;;;;;;7.75;1.58;;;24.30;69.40;;;;;;5128766;27;20216;-76
2022/09/16 05:40:19;;;;;;;15.13;2.45;;;24.30;69.20;;;;;;5130695;27;20192;-75
2022/09/16 05:42:49;;;;;;;8.23;2.00;;;24.40;69.20;;;;;;5122633;27;20238;-74
2022/09/16 05:45:17;;;;;;;7.47;1.58;;;24.40;69.20;;;;;;5126990;27;20244;-74
2022/09/16 05:47:52;;;;;;;5.93;2.40;;;24.50;69.10;;;;;;5127228;28;20280;-74
2022/09/16 05:50:22;;;;;;;13.05;1.90;;;24.60;69.20;;;;;;5129513;27;20623;-75
2022/09/16 05:52:50;;;;;;;10.40;2.58;;;24.60;69.10;;;;;;5132159;27;20245;-74
2022/09/16 05:55:19;;;;;;;12.38;2.38;;;24.60;69.00;;;;;;5131559;27;20188;-74
2022/09/16 05:57:47;;;;;;;10.27;2.00;;;24.70;69.00;;;;;;5132101;27;20706;-75
2022/09/16 06:00:16;;;;;;;6.97;1.80;;;24.70;69.00;;;;;;5126681;27;21235;-77
2022/09/16 06:02:44;;;;;;;5.20;1.60;;;24.80;68.90;;;;;;5134362;27;20216;-74
2022/09/16 06:05:13;;;;;;;3.92;1.42;;;24.80;68.90;;;;;;5132742;27;20204;-75
2022/09/16 06:07:43;;;;;;;5.65;1.98;;;24.90;68.80;;;;;;5128178;27;20188;-75
2022/09/16 06:10:11;;;;;;;5.45;1.90;;;24.90;68.70;;;;;;5133740;27;20575;-74
2022/09/16 06:12:39;;;;;;;7.53;2.08;;;25.00;68.80;;;;;;5124290;27;20216;-74
2022/09/16 06:15:09;;;;;;;7.32;1.70;;;25.10;68.80;;;;;;5130360;27;20189;-73
2022/09/16 06:17:37;;;;;;;5.15;1.50;;;25.10;68.80;;;;;;5128238;27;20231;-74
2022/09/16 06:20:06;;;;;;;7.50;1.73;;;25.10;69.60;;;;;;5135282;27;20205;-74
2022/09/16 06:22:34;;;;;;;7.50;1.65;;;25.20;68.80;;;;;;5130922;27;20220;-74
2022/09/16 06:25:05;;;;;;;7.38;1.92;;;25.20;68.80;;;;;;5135056;27;20208;-75
2022/09/16 06:27:33;;;;;;;6.68;1.90;;;25.30;68.70;;;;;;5131959;27;20185;-73
2022/09/16 06:30:02;;;;;;;10.40;2.00;;;25.30;68.40;;;;;;5132912;27;20197;-74
2022/09/16 06:32:31;;;;;;;7.18;2.20;;;25.40;68.30;;;;;;5135293;27;20180;-74
2022/09/16 06:35:00;;;;;;;7.70;1.73;;;25.50;68.10;;;;;;5131455;27;20197;-75
2022/09/16 06:37:28;;;;;;;5.50;1.98;;;25.60;68.20;;;;;;5135374;27;20181;-75
2022/09/16 06:39:56;;;;;;;5.50;2.38;;;25.60;67.90;;;;;;5130419;27;20218;-75
2022/09/16 06:42:27;;;;;;;7.07;1.50;;;25.60;67.80;;;;;;5130953;27;20197;-75
2022/09/16 06:44:55;;;;;;;7.05;2.13;;;25.70;67.70;;;;;;5128988;27;20200;-74
2022/09/16 06:47:23;;;;;;;13.70;2.10;;;25.70;67.50;;;;;;5132597;27;20200;-74
2022/09/16 06:49:52;;;;;;;10.23;2.55;;;25.70;67.40;;;;;;5134263;27;20235;-74
2022/09/16 06:52:20;;;;;;;6.25;1.95;;;25.80;67.50;;;;;;5129189;27;20189;-75
2022/09/16 06:54:49;;;;;;;11.30;1.90;;;25.90;67.70;;;;;;5125503;27;20235;-74
2022/09/16 06:57:22;;;;;;;10.50;2.30;;;25.90;67.70;;;;;;5132503;27;20245;-76
2022/09/16 06:59:52;;;;;;;6.53;1.48;;;26.00;67.80;;;;;;5130942;27;20603;-75
2022/09/16 07:02:21;;;;;;;6.05;2.00;;;26.10;67.80;;;;;;5126890;27;20227;-74
2022/09/16 07:04:49;;;;;;;7.22;1.92;;;26.20;67.60;;;;;;5131831;27;20215;-75
2022/09/16 07:07:18;;;;;;;10.35;1.70;;;26.20;67.50;;;;;;5129526;27;20188;-75
2022/09/16 07:09:46;;;;;;;9.57;2.00;;;26.30;67.30;;;;;;5127244;27;20197;-75
2022/09/16 07:12:14;;;;;;;7.30;1.80;;;26.30;67.10;;;;;;5131968;27;20740;-75
2022/09/16 07:14:46;;;;;;;7.38;1.90;;;26.40;67.00;;;;;;5132272;27;20204;-75
2022/09/16 07:17:16;;;;;;;8.38;1.60;;;26.40;66.30;;;;;;5128975;27;20249;-74
2022/09/16 07:19:44;;;;;;;6.63;1.77;;;26.50;66.30;;;;;;5132131;27;20239;-74
2022/09/16 07:22:15;;;;;;;5.38;2.17;;;26.60;66.40;;;;;;5128202;27;20195;-75
2022/09/16 07:24:44;;;;;;;4.05;1.60;;;26.60;65.90;;;;;;5133590;27;20247;-74
2022/09/16 07:27:13;;;;;;;5.78;1.63;;;26.70;65.80;;;;;;5131793;27;20212;-75
2022/09/16 07:29:41;;;;;;;6.05;1.83;;;26.80;65.80;;;;;;5133612;27;20188;-73
2022/09/16 07:32:09;;;;;;;4.53;1.77;;;26.80;66.00;;;;;;5134302;27;20241;-74
2022/09/16 07:34:39;;;;;;;8.57;1.70;;;26.90;65.20;;;;;;5131650;27;20220;-75
2022/09/16 07:37:07;;;;;;;5.55;1.55;;;27.00;65.00;;;;;;5129948;27;20253;-74
2022/09/16 07:39:36;;;;;;;6.90;1.40;;;27.00;64.30;;;;;;5127247;27;20275;-74
2022/09/16 07:42:05;;;;;;;5.55;1.33;;;27.10;63.50;;;;;;5132636;27;20223;-74
2022/09/16 07:44:33;;;;;;;6.40;1.30;;;27.10;62.70;;;;;;5134019;27;20204;-74
2022/09/16 07:47:02;;;;;;;2.45;1.10;;;27.10;63.00;;;;;;5133923;27;20652;-74
2022/09/16 07:49:30;;;;;;;4.55;1.55;;;27.20;62.50;;;;;;5133377;27;20228;-75
2022/09/16 07:52:00;;;;;;;8.82;1.35;;;27.30;62.60;;;;;;5128471;27;20192;-75
2022/09/16 07:54:28;;;;;;;10.48;2.13;;;27.30;61.70;;;;;;5131789;27;20180;-74
2022/09/16 07:56:57;;;;;;;8.63;1.40;;;27.40;61.80;;;;;;5133435;27;20325;-75
2022/09/16 07:59:26;;;;;;;7.13;1.63;;;27.40;61.60;;;;;;5133574;27;20267;-75
2022/09/16 08:01:54;;;;;;;5.82;1.30;;;27.50;60.90;;;;;;5131755;27;20233;-75
2022/09/16 08:04:22;;;;;;;1.98;1.00;;;27.50;60.50;;;;;;5133673;27;20188;-74
2022/09/16 08:06:51;;;;;;;3.40;1.45;;;27.60;60.80;;;;;;5130761;27;20637;-75
2022/09/16 08:09:21;;;;;;;5.38;1.08;;;27.70;60.90;;;;;;5133564;27;20219;-74
2022/09/16 08:12:11;;;;;;;4.53;1.00;;;27.70;60.90;;;;;;5132759;27;20224;-75
2022/09/16 08:14:39;;;;;;;7.85;1.10;;;27.70;59.60;;;;;;5132403;27;20192;-74
2022/09/16 08:17:08;;;;;;;3.83;1.30;;;27.80;59.60;;;;;;5132817;27;20661;-75
2022/09/16 08:19:38;;;;;;;4.55;1.15;;;27.80;59.30;;;;;;5133401;27;20188;-74
2022/09/16 08:22:06;;;;;;;1.95;1.00;;;27.80;57.60;;;;;;5125000;27;20200;-76
2022/09/16 08:24:38;;;;;;;3.50;0.90;;;27.90;58.40;;;;;;5130006;27;20214;-76
2022/09/16 08:27:07;;;;;;;6.35;1.02;;;27.90;58.20;;;;;;5130886;27;20218;-74
2022/09/16 08:29:35;;;;;;;4.00;1.65;;;28.00;58.40;;;;;;5129316;27;20320;-73
2022/09/16 08:32:03;;;;;;;9.82;1.15;;;28.00;58.40;;;;;;5128246;27;20219;-76
2022/09/16 08:34:32;;;;;;;5.15;0.98;;;28.10;58.50;;;;;;5128819;27;20222;-75
2022/09/16 08:37:00;;;;;;;2.42;1.10;;;28.20;58.40;;;;;;5128191;27;20204;-76
2022/09/16 08:39:29;;;;;;;3.97;1.02;;;28.20;58.00;;;;;;5130848;27;20192;-74
2022/09/16 08:42:28;;;;;;;4.28;1.10;;;28.30;57.90;;;;;;5132162;27;20196;-76
2022/09/16 08:45:19;;;;;;;2.40;0.77;;;28.30;57.80;;;;;;5124657;27;20219;-77
2022/09/16 08:48:02;;;;;;;5.75;0.90;;;28.40;57.70;;;;;;5127713;27;20184;-75
2022/09/16 08:50:36;;;;;;;1.20;0.70;;;28.50;57.30;;;;;;5123971;27;20188;-74
2022/09/16 08:53:13;;;;;;;3.35;0.82;;;28.50;56.50;;;;;;5129677;27;20193;-76
2022/09/16 08:55:46;;;;;;;4.72;1.25;;;28.50;56.00;;;;;;5129683;27;20219;-76
2022/09/16 08:58:19;;;;;;;4.88;1.35;;;28.60;56.10;;;;;;5133270;27;20649;-74
2022/09/16 09:00:55;;;;;;;3.55;0.70;;;28.60;56.40;;;;;;5127989;27;20192;-73
2022/09/16 09:03:33;;;;;;;5.88;0.70;;;28.60;55.90;;;;;;5130539;27;20675;-75
2022/09/16 09:06:04;;;;;;;3.78;0.70;;;28.70;55.50;;;;;;5124037;27;20204;-74
2022/09/16 09:08:49;;;;;;;5.75;0.98;;;28.70;54.80;;;;;;5129387;27;20220;-75
2022/09/16 09:11:26;;;;;;;2.30;0.80;;;28.80;55.00;;;;;;5128048;27;20598;-76
2022/09/16 09:14:26;;;;;;;2.17;0.80;;;28.90;55.10;;;;;;5128506;27;20187;-75
2022/09/16 09:17:02;;;;;;;5.03;0.80;;;28.90;54.70;;;;;;5122889;27;20269;-75
2022/09/16 09:19:44;;;;;;;5.32;0.60;;;29.00;54.10;;;;;;5123875;27;20227;-76
2022/09/16 09:22:24;;;;;;;2.88;0.70;;;29.10;54.30;;;;;;5124404;27;20220;-76
2022/09/16 09:25:01;;;;;;;3.80;0.55;;;29.10;54.10;;;;;;5124993;27;20223;-74
2022/09/16 09:27:36;;;;;;;4.05;0.70;;;29.20;53.50;;;;;;5129534;27;20200;-76
2022/09/16 09:30:14;;;;;;;0.73;0.40;;;29.20;53.50;;;;;;5121728;27;20184;-75
2022/09/16 09:32:56;;;;;;;1.42;0.50;;;29.30;52.90;;;;;;5123452;27;20286;-76
2022/09/16 09:35:40;;;;;;;0.88;0.50;;;29.30;52.00;;;;;;5106124;28;20574;-74
2022/09/16 09:38:37;;;;;;;1.73;0.70;;;29.40;52.40;;;;;;5108484;28;20562;-72
2022/09/16 09:41:20;;;;;;;1.05;0.60;;;29.50;52.10;;;;;;5111612;28;20654;-75
2022/09/16 09:43:53;;;;;;;3.08;0.60;;;29.60;52.00;;;;;;5105458;28;20661;-76
2022/09/16 09:46:29;;;;;;;2.58;0.50;;;29.60;51.30;;;;;;5110718;28;20209;-76
2022/09/16 09:49:04;;;;;;;4.88;0.50;;;29.80;51.60;;;;;;5110399;28;20271;-75
2022/09/16 09:51:36;;;;;;;3.05;0.70;;;29.80;51.50;;;;;;5109798;28;20633;-76
2022/09/16 09:54:22;;;;;;;1.83;0.40;;;29.80;50.20;;;;;;5108161;28;20246;-75
2022/09/16 09:56:52;;;;;;;1.90;0.40;;;29.80;50.40;;;;;;5103543;28;20626;-75
2022/09/16 09:59:30;;;;;;;2.13;0.45;;;29.90;50.50;;;;;;5107399;28;20224;-74
2022/09/16 10:02:01;;;;;;;1.00;0.40;;;29.90;49.70;;;;;;5109941;28;20243;-73
2022/09/16 10:04:36;;;;;;;1.00;0.60;;;30.00;50.20;;;;;;5107624;28;20186;-74
2022/09/16 10:07:06;;;;;;;1.73;0.65;;;30.00;50.40;;;;;;5109002;28;20213;-75
2022/09/16 10:09:37;;;;;;;2.13;0.77;;;30.00;50.80;;;;;;5108628;28;20227;-76
2022/09/16 10:12:05;;;;;;;5.10;0.90;;;30.00;50.90;;;;;;5104536;28;20181;-76
2022/09/16 10:14:37;;;;;;;2.90;0.65;;;30.00;50.80;;;;;;5106797;28;20216;-75
2022/09/16 10:17:16;;;;;;;4.75;0.70;;;30.00;51.20;;;;;;5108688;28;20185;-75
2022/09/16 10:19:52;;;;;;;4.93;1.40;;;30.00;51.10;;;;;;5107683;28;20185;-75
2022/09/16 10:22:24;;;;;;;1.20;0.57;;;30.10;51.20;;;;;;5102754;28;20197;-76
2022/09/16 10:24:55;;;;;;;3.22;0.40;;;30.10;50.20;;;;;;5107513;28;20907;-76
2022/09/16 10:27:27;;;;;;;2.05;0.52;;;30.20;49.80;;;;;;5103868;28;20241;-76
2022/09/16 10:30:06;;;;;;;1.00;0.50;;;30.20;49.40;;;;;;5103501;28;20185;-74
2022/09/16 10:32:47;;;;;;;3.33;0.65;;;30.20;49.20;;;;;;5101356;28;20192;-76
2022/09/16 10:35:21;;;;;;;1.45;0.52;;;30.20;49.60;;;;;;5109266;28;20217;-75
2022/09/16 10:37:59;;;;;;;1.02;0.57;;;30.30;49.30;;;;;;5111320;28;20709;-75
2022/09/16 10:40:28;;;;;;;1.90;0.47;;;30.30;49.40;;;;;;5107019;28;20181;-75
2022/09/16 10:43:01;;;;;;;1.13;0.50;;;30.30;49.40;;;;;;5112147;28;20253;-75
2022/09/16 10:45:31;;;;;;;3.10;0.60;;;30.40;49.60;;;;;;5112105;28;20659;-76
2022/09/16 10:48:07;;;;;;;0.68;0.40;;;30.40;49.10;;;;;;5100253;28;20290;-77
2022/09/16 10:50:35;;;;;;;2.95;0.50;;;30.40;49.10;;;;;;5113460;27;20216;-75
2022/09/16 10:53:20;;;;;;;2.58;0.50;;;30.40;49.20;;;;;;5104848;28;20604;-75
2022/09/16 10:55:57;;;;;;;1.92;0.50;;;30.40;49.50;;;;;;5108925;28;20224;-74
2022/09/16 10:58:26;;;;;;;0.93;0.55;;;30.50;49.10;;;;;;5110418;28;20216;-75
2022/09/16 11:01:08;;;;;;;1.58;0.55;;;30.40;49.00;;;;;;5107592;28;20197;-75
2022/09/16 11:04:28;;;;;;;2.72;0.57;;;30.40;49.10;;;;;;5109853;28;20192;-75
2022/09/16 11:07:08;;;;;;;3.10;0.45;;;30.50;49.10;;;;;;5076350;28;20757;-77
2022/09/16 11:09:44;;;;;;;1.30;0.50;;;30.50;49.40;;;;;;5110596;28;20196;-75
2022/09/16 11:12:42;;;;;;;3.20;0.68;;;30.50;49.40;;;;;;5105403;28;20212;-76
2022/09/16 11:15:20;;;;;;;3.05;0.38;;;30.60;50.00;;;;;;5084236;27;20734;-76
2022/09/16 11:18:01;;;;;;;2.17;0.65;;;30.50;48.50;;;;;;5106213;28;20246;-76
2022/09/16 11:20:47;;;;;;;4.32;0.68;;;30.50;48.40;;;;;;5104041;28;20240;-75
2022/09/16 11:23:30;;;;;;;2.50;0.60;;;30.60;48.70;;;;;;5108296;28;20321;-75
2022/09/16 11:26:05;;;;;;;2.40;0.50;;;30.60;48.40;;;;;;5106093;28;20456;-73
2022/09/16 11:28:50;;;;;;;4.07;0.60;;;30.70;48.60;;;;;;5104857;28;21050;-73
2022/09/16 11:31:30;;;;;;;3.63;0.60;;;30.60;48.70;;;;;;5109015;28;20285;-75
2022/09/16 11:34:07;;;;;;;1.27;0.40;;;30.70;49.10;;;;;;5105913;28;20620;-74
2022/09/16 11:36:50;;;;;;;5.05;0.60;;;30.60;48.90;;;;;;5111281;28;20209;-73
2022/09/16 11:39:33;;;;;;;3.67;0.50;;;30.70;48.90;;;;;;5105522;28;20217;-75
2022/09/16 11:42:23;;;;;;;3.63;0.60;;;30.70;49.20;;;;;;5103408;28;20228;-74
2022/09/16 11:45:01;;;;;;;1.25;0.60;;;30.70;49.30;;;;;;5099496;28;20230;-76
2022/09/16 11:47:42;;;;;;;2.85;0.73;;;30.70;49.20;;;;;;5104068;28;20699;-75
2022/09/16 11:50:29;;;;;;;2.20;0.50;;;30.70;49.20;;;;;;5108289;28;20188;-74
2022/09/16 11:53:25;;;;;;;5.85;0.60;;;30.60;49.20;;;;;;5103856;28;20230;-75
2022/09/16 11:56:04;;;;;;;5.82;0.70;;;30.70;49.30;;;;;;5108276;28;20220;-74
2022/09/16 11:58:38;;;;;;;2.17;0.65;;;30.70;49.20;;;;;;5103922;28;20238;-74
2022/09/16 12:01:23;;;;;;;2.72;0.70;;;30.70;49.10;;;;;;5106222;28;20685;-74
2022/09/16 12:03:57;;;;;;;6.10;1.02;;;30.70;49.00;;;;;;5108223;28;20660;-74
2022/09/16 12:06:30;;;;;;;2.92;1.00;;;30.80;49.50;;;;;;5107821;28;20254;-74
2022/09/16 12:09:03;;;;;;;2.88;0.70;;;30.80;49.50;;;;;;5110690;28;20649;-74
2022/09/16 12:11:46;;;;;;;2.85;0.65;;;30.80;49.30;;;;;;5109632;28;20191;-74
2022/09/16 12:14:20;;;;;;;3.90;0.70;;;30.80;49.40;;;;;;5104161;28;20228;-73
2022/09/16 12:16:52;;;;;;;3.53;0.68;;;30.80;49.60;;;;;;5105061;28;20200;-75
2022/09/16 12:19:25;;;;;;;5.22;1.30;;;30.80;49.30;;;;;;5106568;28;20605;-75
2022/09/16 12:21:59;;;;;;;2.08;0.60;;;30.80;49.40;;;;;;5109048;28;20232;-75
2022/09/16 12:24:36;;;;;;;4.93;0.70;;;30.80;48.70;;;;;;5103969;28;20220;-73
2022/09/16 12:27:12;;;;;;;4.22;0.63;;;30.80;48.70;;;;;;5109687;28;20669;-74
2022/09/16 12:29:49;;;;;;;3.85;1.35;;;30.80;49.00;;;;;;5110022;28;20242;-74
2022/09/16 12:32:21;;;;;;;3.55;0.80;;;30.80;49.00;;;;;;5107120;28;20206;-73
2022/09/16 12:34:56;;;;;;;5.10;0.63;;;30.80;49.30;;;;;;5111102;28;20270;-75
2022/09/16 12:37:34;;;;;;;4.97;1.08;;;30.80;49.00;;;;;;5106220;28;20216;-74
2022/09/16 12:40:03;;;;;;;2.22;0.82;;;30.70;48.70;;;;;;5105237;28;20531;-74
2022/09/16 12:43:16;;;;;;;3.33;0.70;;;30.80;49.00;;;;;;5105932;28;20265;-73
2022/09/16 12:46:33;;;;;;;3.13;0.75;;;30.80;48.90;;;;;;5097395;28;20205;-73
2022/09/16 12:49:32;;;;;;;1.95;0.45;;;30.80;49.10;;;;;;5106009;28;20216;-73
2022/09/16 12:52:33;;;;;;;5.82;0.70;;;30.80;48.90;;;;;;5109460;28;20217;-75
2022/09/16 12:55:36;;;;;;;3.40;0.88;;;30.80;49.00;;;;;;5105657;28;20226;-73
2022/09/16 12:58:43;;;;;;;4.93;0.70;;;30.80;49.10;;;;;;5103557;28;20188;-73
2022/09/16 13:01:20;;;;;;;3.22;0.40;;;30.90;49.30;;;;;;5058368;28;20633;-75
2022/09/16 13:03:52;;;;;;;2.55;0.60;;;30.80;48.80;;;;;;5108485;28;20189;-74
2022/09/16 13:06:26;;;;;;;1.85;0.80;;;30.80;49.10;;;;;;5106554;28;20587;-73
2022/09/16 13:08:55;;;;;;;2.55;0.70;;;30.80;49.10;;;;;;5111391;28;20247;-75
2022/09/16 13:11:26;;;;;;;4.13;0.80;;;30.80;49.20;;;;;;5108768;28;20216;-73
2022/09/16 13:14:23;;;;;;;5.75;0.73;;;30.80;49.00;;;;;;5104649;28;20262;-74
2022/09/16 13:16:57;;;;;;;4.70;0.80;;;30.80;49.20;;;;;;5102511;28;20220;-74
2022/09/16 13:19:35;;;;;;;4.53;0.75;;;30.80;49.20;;;;;;5106386;28;20736;-73
2022/09/16 13:22:21;;;;;;;5.50;0.63;;;30.80;49.40;;;;;;5110250;28;20284;-73
2022/09/16 13:24:55;;;;;;;6.38;0.85;;;30.80;49.40;;;;;;5104997;28;20238;-73